Time;durP1;ratioP1;P1;durP2;ratioP2;P2;SDS_P1;SDS_P2;PMS_P1;PMS_P2;Temp;Humidity;BMP_temperature;BMP_pressure;BME280_temperature;BME280_humidity;BME280_pressure;Samples;Min_cycle;Max_cycle;Signal;HPM_P1;HPM_P2
2023/07/06 00:00:50;;;;;;;2.40;2.00;;;;;;;18.38;85.09;100379.91;4949014;28;20222;-75
2023/07/06 00:03:15;;;;;;;2.23;2.03;;;;;;;18.35;85.00;100387.03;4963400;28;20279;-75
2023/07/06 00:05:44;;;;;;;2.23;2.03;;;;;;;18.28;84.96;100382.03;4944902;28;20275;-76
2023/07/06 00:08:13;;;;;;;2.23;1.80;;;;;;;18.24;85.71;100383.06;4947260;28;20196;-76
2023/07/06 00:10:39;;;;;;;2.33;1.67;;;;;;;18.22;86.10;100381.41;4953873;28;20192;-75
2023/07/06 00:13:06;;;;;;;2.33;2.13;;;;;;;18.18;86.36;100388.53;4949477;28;20228;-75
2023/07/06 00:15:33;;;;;;;2.43;1.93;;;;;;;18.13;86.44;100388.72;4964448;28;20195;-76
2023/07/06 00:18:03;;;;;;;2.23;1.80;;;;;;;18.09;87.30;100392.38;4961727;28;20238;-76
2023/07/06 00:20:37;;;;;;;2.10;1.80;;;;;;;18.06;87.79;100383.78;4953974;28;20194;-75
2023/07/06 00:23:03;;;;;;;1.90;1.80;;;;;;;18.00;88.16;100384.84;4948639;28;20222;-75
2023/07/06 00:25:28;;;;;;;1.83;1.73;;;;;;;17.96;88.08;100388.50;4945215;28;20241;-76
2023/07/06 00:27:54;;;;;;;1.77;1.67;;;;;;;17.91;87.67;100391.28;4977929;28;20222;-76
2023/07/06 00:30:30;;;;;;;1.90;1.80;;;;;;;17.88;87.88;100390.53;4952130;28;20517;-76
2023/07/06 00:32:56;;;;;;;2.37;2.13;;;;;;;17.86;87.67;100389.72;4953851;28;20217;-75
2023/07/06 00:35:22;;;;;;;1.80;1.70;;;;;;;17.81;88.56;100393.41;4952481;28;20201;-75
2023/07/06 00:37:49;;;;;;;2.40;1.80;;;;;;;17.79;89.25;100387.38;4946494;28;20204;-75
2023/07/06 00:40:14;;;;;;;2.30;2.10;;;;;;;17.78;89.99;100384.78;4946382;28;20194;-75
2023/07/06 00:42:41;;;;;;;2.83;2.00;;;;;;;17.73;90.00;100384.13;4944482;28;20204;-75
2023/07/06 00:45:09;;;;;;;2.27;1.83;;;;;;;17.65;90.42;100387.03;4980659;28;20663;-76
2023/07/06 00:47:44;;;;;;;2.20;2.00;;;;;;;17.58;91.14;100396.88;4946224;28;20300;-75
2023/07/06 00:50:15;;;;;;;2.20;2.00;;;;;;;17.52;91.27;100391.84;4941024;28;20205;-75
2023/07/06 00:52:48;;;;;;;2.00;1.90;;;;;;;17.48;91.37;100393.72;4943707;28;20211;-76
2023/07/06 00:55:15;;;;;;;2.80;2.17;;;;;;;17.45;91.40;100385.13;4942399;28;20212;-75
2023/07/06 00:57:41;;;;;;;1.90;1.70;;;;;;;17.39;90.78;100381.00;4951053;28;20950;-76
2023/07/06 01:00:07;;;;;;;3.23;1.83;;;;;;;17.38;90.95;100381.91;4941325;28;20285;-75
2023/07/06 01:02:38;;;;;;;2.10;1.90;;;;;;;17.35;90.63;100377.59;4942457;28;20196;-75
2023/07/06 01:05:05;;;;;;;2.30;2.10;;;;;;;17.32;90.11;100385.56;4941435;28;20209;-75
2023/07/06 01:07:32;;;;;;;2.50;1.90;;;;;;;17.29;90.16;100388.31;4979636;28;20215;-76
2023/07/06 01:09:58;;;;;;;2.80;2.20;;;;;;;17.28;90.57;100386.59;4950541;28;20214;-75
2023/07/06 01:12:24;;;;;;;2.90;2.50;;;;;;;17.30;90.67;100387.41;4944512;28;20330;-75
2023/07/06 01:14:51;;;;;;;1.70;1.60;;;;;;;17.32;90.61;100384.72;4943112;28;20197;-75
2023/07/06 01:17:29;;;;;;;2.10;1.90;;;;;;;17.31;90.86;100398.69;4940706;28;20218;-75
2023/07/06 01:20:12;;;;;;;2.07;1.93;;;;;;;17.32;91.37;100392.56;4942458;28;20195;-76
2023/07/06 01:22:56;;;;;;;2.73;2.00;;;;;;;17.30;91.18;100389.16;4942820;28;20616;-75
2023/07/06 01:25:52;;;;;;;2.20;2.00;;;;;;;17.28;91.24;100394.44;4946045;28;20190;-75
2023/07/06 01:28:45;;;;;;;2.20;2.00;;;;;;;17.22;90.70;100392.03;4939569;28;20194;-75
2023/07/06 01:31:27;;;;;;;2.70;1.90;;;;;;;17.18;91.56;100395.66;4947922;28;20209;-77
2023/07/06 01:33:55;;;;;;;1.80;1.70;;;;;;;17.14;91.94;100391.44;4949786;28;20205;-75
2023/07/06 01:36:40;;;;;;;1.93;1.80;;;;;;;17.09;92.03;100391.63;4954607;28;20951;-74
2023/07/06 01:39:18;;;;;;;1.70;1.60;;;;;;;17.03;89.89;100394.44;4942067;28;20190;-76
2023/07/06 01:41:45;;;;;;;2.33;1.83;;;;;;;16.98;88.35;100388.50;4941511;28;20194;-75
2023/07/06 01:44:12;;;;;;;1.80;1.70;;;;;;;16.95;88.07;100394.69;4941183;28;20191;-74
2023/07/06 01:46:58;;;;;;;1.63;1.53;;;;;;;16.97;87.84;100392.00;4941236;28;20226;-75
2023/07/06 01:49:24;;;;;;;2.73;1.53;;;;;;;16.94;88.42;100390.34;4939447;28;20229;-75
2023/07/06 01:52:07;;;;;;;2.20;2.00;;;;;;;16.94;88.26;100389.50;4941538;28;20722;-74
2023/07/06 01:55:09;;;;;;;1.93;1.50;;;;;;;16.92;88.93;100386.91;4951437;28;20191;-75
2023/07/06 01:58:04;;;;;;;2.70;2.00;;;;;;;16.92;89.94;100387.78;4972850;28;20786;-74
2023/07/06 02:00:31;;;;;;;2.30;2.10;;;;;;;16.90;90.79;100379.13;4943403;28;20598;-77
2023/07/06 02:02:59;;;;;;;2.10;1.70;;;;;;;16.91;91.91;100382.59;4938427;28;20183;-75
2023/07/06 02:05:25;;;;;;;3.37;2.00;;;;;;;16.89;92.42;100385.28;4942525;28;20202;-74
2023/07/06 02:07:50;;;;;;;2.20;2.00;;;;;;;16.86;93.02;100387.13;4974146;28;20218;-75
2023/07/06 02:10:17;;;;;;;1.93;1.67;;;;;;;16.83;93.27;100379.41;4941728;28;20194;-75
2023/07/06 02:12:47;;;;;;;1.70;1.60;;;;;;;16.76;93.50;100383.97;4941645;28;20327;-75
2023/07/06 02:15:13;;;;;;;2.10;1.90;;;;;;;16.72;93.44;100379.75;4940850;28;20198;-75
2023/07/06 02:17:38;;;;;;;1.90;1.80;;;;;;;16.67;93.18;100385.13;4940287;28;20221;-75
2023/07/06 02:20:05;;;;;;;1.83;1.63;;;;;;;16.64;93.09;100381.78;4971330;28;21022;-75
2023/07/06 02:22:32;;;;;;;1.77;1.50;;;;;;;16.57;92.91;100381.97;4942222;28;20262;-74
2023/07/06 02:24:57;;;;;;;2.13;1.80;;;;;;;16.54;93.08;100378.59;4942886;28;20205;-75
2023/07/06 02:27:23;;;;;;;2.30;1.87;;;;;;;16.50;93.44;100377.81;4944526;28;20238;-75
2023/07/06 02:29:48;;;;;;;1.87;1.70;;;;;;;16.46;93.83;100381.47;4941772;28;20221;-73
2023/07/06 02:32:15;;;;;;;2.50;1.90;;;;;;;16.42;94.49;100377.22;4941884;28;20570;-75
2023/07/06 02:34:40;;;;;;;2.10;1.90;;;;;;;16.37;94.50;100373.91;4973471;28;20191;-75
2023/07/06 02:37:05;;;;;;;2.80;1.70;;;;;;;16.30;94.88;100370.63;4940303;28;20302;-75
2023/07/06 02:39:31;;;;;;;2.40;1.90;;;;;;;16.22;95.26;100365.66;4941809;28;20198;-74
2023/07/06 02:41:57;;;;;;;1.87;1.60;;;;;;;16.13;94.76;100365.94;4941881;28;20193;-75
2023/07/06 02:44:23;;;;;;;2.60;2.40;;;;;;;16.04;95.02;100369.69;4944002;28;20218;-75
2023/07/06 02:46:49;;;;;;;2.13;1.70;;;;;;;15.94;95.24;100376.94;4944712;28;20229;-75
2023/07/06 02:49:18;;;;;;;2.10;1.90;;;;;;;15.87;95.86;100382.38;4945466;28;20217;-75
2023/07/06 02:51:43;;;;;;;3.00;2.10;;;;;;;15.79;96.51;100380.84;4943418;28;20214;-75
2023/07/06 02:54:13;;;;;;;1.90;1.80;;;;;;;15.72;97.07;100376.69;4944682;28;20252;-75
2023/07/06 02:56:41;;;;;;;2.00;1.90;;;;;;;15.66;97.83;100382.06;4940503;28;20218;-75
2023/07/06 02:59:07;;;;;;;2.27;1.87;;;;;;;15.61;98.11;100369.16;4939862;28;20213;-75
2023/07/06 03:01:33;;;;;;;1.93;1.67;;;;;;;15.55;97.87;100374.56;4959497;28;21004;-74
2023/07/06 03:03:59;;;;;;;2.27;2.07;;;;;;;15.51;97.86;100373.78;4972826;28;20192;-74
2023/07/06 03:06:24;;;;;;;1.80;1.70;;;;;;;15.48;98.09;100367.78;4940466;28;20231;-75
2023/07/06 03:08:49;;;;;;;1.87;1.63;;;;;;;15.44;98.06;100369.66;4945625;28;20848;-74
2023/07/06 03:11:16;;;;;;;2.50;2.00;;;;;;;15.43;97.99;100367.09;4950070;28;20586;-74
2023/07/06 03:13:41;;;;;;;2.07;1.87;;;;;;;15.42;97.86;100370.59;4942933;28;20273;-73
2023/07/06 03:16:08;;;;;;;3.23;2.00;;;;;;;15.39;97.58;100371.50;4945566;28;20676;-75
2023/07/06 03:18:34;;;;;;;1.90;1.80;;;;;;;15.40;97.69;100370.63;4946269;28;20272;-75
2023/07/06 03:21:00;;;;;;;1.97;1.70;;;;;;;15.39;97.55;100371.50;4946788;28;20679;-75
2023/07/06 03:23:27;;;;;;;2.10;1.90;;;;;;;15.37;97.06;100371.56;4946953;28;20265;-75
2023/07/06 03:25:53;;;;;;;1.43;1.33;;;;;;;15.36;96.36;100371.59;4944833;28;20675;-75
2023/07/06 03:28:20;;;;;;;2.20;1.93;;;;;;;15.34;96.20;100376.03;4945367;28;20209;-74
2023/07/06 03:30:52;;;;;;;2.00;1.90;;;;;;;15.30;95.99;100371.78;4950582;28;20260;-76
2023/07/06 03:33:19;;;;;;;1.80;1.70;;;;;;;15.27;96.57;100377.06;4946948;28;20217;-75
2023/07/06 03:35:45;;;;;;;2.60;1.87;;;;;;;15.23;96.47;100376.31;4944758;28;20684;-76
2023/07/06 03:38:10;;;;;;;2.40;1.90;;;;;;;15.22;96.54;100377.19;4947331;28;20197;-76
2023/07/06 03:40:35;;;;;;;2.53;1.90;;;;;;;15.20;96.65;100376.38;4943875;28;20444;-75
2023/07/06 03:43:01;;;;;;;2.90;1.83;;;;;;;15.19;96.85;100382.50;4958193;28;20190;-75
2023/07/06 03:45:30;;;;;;;2.37;1.90;;;;;;;15.18;96.89;100378.16;4944024;28;20604;-76
2023/07/06 03:47:55;;;;;;;3.10;1.90;;;;;;;15.19;97.05;100379.88;4943820;28;20217;-75
2023/07/06 03:50:21;;;;;;;2.77;2.57;;;;;;;15.20;97.23;100385.03;4946952;28;20616;-75
2023/07/06 03:52:47;;;;;;;2.10;1.90;;;;;;;15.21;96.71;100389.38;4943406;28;20214;-75
2023/07/06 03:55:19;;;;;;;2.30;2.10;;;;;;;15.24;96.59;100391.06;4955727;28;20265;-75
2023/07/06 03:57:45;;;;;;;2.60;2.00;;;;;;;15.29;96.25;100391.75;4943282;28;20243;-75
2023/07/06 04:00:22;;;;;;;2.30;2.10;;;;;;;15.35;96.14;100386.41;4940319;28;20307;-75
2023/07/06 04:02:52;;;;;;;2.40;2.20;;;;;;;15.45;95.55;100387.00;4943156;28;20187;-74
2023/07/06 04:05:22;;;;;;;2.57;2.17;;;;;;;15.55;95.16;100390.22;4943220;28;20195;-76
2023/07/06 04:07:52;;;;;;;1.93;1.83;;;;;;;15.66;95.00;100395.97;4943351;28;20245;-75
2023/07/06 04:10:21;;;;;;;2.90;2.13;;;;;;;15.72;94.38;100394.09;4973568;28;20691;-75
2023/07/06 04:12:50;;;;;;;2.27;2.07;;;;;;;15.74;94.16;100400.97;4944629;28;20210;-76
2023/07/06 04:15:18;;;;;;;2.37;2.07;;;;;;;15.79;94.51;100403.44;4943068;28;21257;-75
2023/07/06 04:17:47;;;;;;;3.10;2.50;;;;;;;15.83;94.40;100399.84;4943506;28;20257;-75
2023/07/06 04:20:39;;;;;;;3.13;2.37;;;;;;;15.89;94.26;100399.69;4941234;28;20200;-74
2023/07/06 04:23:04;;;;;;;5.97;2.60;;;;;;;15.81;92.95;100404.25;4944713;28;20198;-75
2023/07/06 04:25:33;;;;;;;3.73;2.30;;;;;;;15.81;92.38;100405.09;4945590;28;20249;-76
2023/07/06 04:28:05;;;;;;;4.53;2.07;;;;;;;15.97;94.29;100402.94;4943039;28;20260;-77
2023/07/06 04:30:33;;;;;;;3.13;2.10;;;;;;;16.07;96.48;100405.28;4960038;28;20289;-76
2023/07/06 04:32:59;;;;;;;5.47;2.50;;;;;;;16.12;98.00;100408.63;4943065;28;20202;-75
2023/07/06 04:35:24;;;;;;;3.43;2.10;;;;;;;16.14;98.35;100410.25;4976193;28;20194;-76
2023/07/06 04:37:50;;;;;;;3.17;2.30;;;;;;;16.17;99.07;100400.63;4944139;28;20212;-76
2023/07/06 04:40:20;;;;;;;4.77;2.00;;;;;;;16.26;99.72;100410.81;4947961;28;20187;-75
2023/07/06 04:42:48;;;;;;;3.93;2.37;;;;;;;16.47;99.93;100409.28;4942908;28;20672;-74
2023/07/06 04:45:14;;;;;;;2.77;2.33;;;;;;;16.92;98.84;100406.09;4958616;28;20277;-75
2023/07/06 04:47:40;;;;;;;3.93;2.63;;;;;;;17.55;96.53;100410.06;4940482;28;20219;-75
2023/07/06 04:50:08;;;;;;;2.63;2.00;;;;;;;18.20;94.41;100415.53;4946086;28;20205;-75
2023/07/06 04:52:39;;;;;;;4.07;2.20;;;;;;;18.85;91.27;100406.84;4949953;28;20212;-75
2023/07/06 04:55:10;;;;;;;4.97;2.57;;;;;;;19.18;84.57;100409.84;4949155;28;20197;-76
2023/07/06 04:57:37;;;;;;;3.20;2.23;;;;;;;19.57;82.35;100415.19;4958516;28;21020;-76
2023/07/06 05:00:13;;;;;;;3.63;1.97;;;;;;;20.40;80.57;100411.38;4942981;28;20565;-77
2023/07/06 05:02:42;;;;;;;3.97;2.40;;;;;;;20.65;76.97;100414.59;4942505;28;20182;-75
2023/07/06 05:05:11;;;;;;;6.47;2.60;;;;;;;20.61;76.83;100415.66;4943270;28;20195;-75
2023/07/06 05:07:37;;;;;;;5.37;1.97;;;;;;;21.28;75.46;100410.59;4947936;28;20210;-76
2023/07/06 05:10:02;;;;;;;5.33;2.10;;;;;;;21.68;73.89;100413.78;4948000;28;20285;-76
2023/07/06 05:12:27;;;;;;;3.83;2.10;;;;;;;22.31;72.15;100424.47;4985452;28;20230;-75
2023/07/06 05:14:53;;;;;;;2.93;1.67;;;;;;;22.71;71.54;100423.97;4970585;28;20187;-76
2023/07/06 05:17:18;;;;;;;2.60;1.70;;;;;;;23.12;70.81;100415.44;4951889;28;20298;-76
2023/07/06 05:19:45;;;;;;;4.80;2.37;;;;;;;23.37;69.13;100425.38;4958374;28;20735;-76
2023/07/06 05:22:12;;;;;;;2.23;2.03;;;;;;;23.69;69.22;100425.19;4949371;28;20764;-76
2023/07/06 05:24:39;;;;;;;3.90;2.13;;;;;;;24.26;67.62;100427.88;4949065;29;20269;-76
2023/07/06 05:27:05;;;;;;;3.53;1.80;;;;;;;24.27;66.82;100422.53;4963044;28;20276;-76
2023/07/06 05:29:32;;;;;;;3.10;1.70;;;;;;;24.47;67.01;100417.72;4950873;28;20206;-76
2023/07/06 05:31:57;;;;;;;2.97;1.90;;;;;;;24.42;66.33;100418.00;4946261;28;20602;-76
2023/07/06 05:34:22;;;;;;;4.07;1.80;;;;;;;25.09;65.18;100418.94;4959201;28;20190;-77
2023/07/06 05:36:48;;;;;;;2.63;1.90;;;;;;;24.84;64.53;100417.97;4962782;28;20214;-75
2023/07/06 05:39:13;;;;;;;3.28;1.90;;;;;;;25.67;63.11;100419.38;4950384;28;20198;-75
2023/07/06 05:41:38;;;;;;;2.00;1.58;;;;;;;26.01;63.15;100424.06;4981019;28;20253;-76
2023/07/06 05:44:04;;;;;;;2.38;1.75;;;;;;;26.27;63.14;100430.19;4952139;28;20190;-76
2023/07/06 05:46:29;;;;;;;3.03;1.75;;;;;;;26.80;62.05;100428.97;4953486;28;20771;-75
2023/07/06 05:48:54;;;;;;;2.63;1.90;;;;;;;27.09;61.65;100433.88;4951059;28;20288;-76
2023/07/06 05:51:20;;;;;;;4.00;1.90;;;;;;;27.72;59.73;100430.00;4951120;28;20304;-75
2023/07/06 05:53:49;;;;;;;2.40;1.75;;;;;;;28.29;58.43;100433.41;4964643;28;20226;-76
2023/07/06 05:56:15;;;;;;;2.50;1.90;;;;;;;28.32;58.06;100427.84;4945756;29;20322;-75
2023/07/06 05:58:41;;;;;;;2.30;1.73;;;;;;;28.63;58.30;100433.31;4950494;29;20672;-76
2023/07/06 06:01:07;;;;;;;2.17;1.70;;;;;;;28.88;58.57;100431.28;4951373;29;20250;-76
2023/07/06 06:03:32;;;;;;;3.03;2.00;;;;;;;29.22;57.93;100438.22;4950515;28;20245;-77
2023/07/06 06:05:58;;;;;;;3.30;2.08;;;;;;;29.40;56.93;100427.81;4982368;28;20178;-77
2023/07/06 06:08:24;;;;;;;7.25;2.92;;;;;;;29.36;56.95;100435.25;4951349;28;20252;-75
2023/07/06 06:10:50;;;;;;;4.28;2.20;;;;;;;29.35;56.91;100430.88;4950965;28;20290;-75
2023/07/06 06:13:16;;;;;;;3.03;2.20;;;;;;;29.31;57.29;100438.28;4939584;28;20216;-76
2023/07/06 06:15:42;;;;;;;4.20;2.10;;;;;;;29.57;57.16;100447.69;4970067;28;20191;-75
2023/07/06 06:18:07;;;;;;;2.03;1.83;;;;;;;29.81;56.01;100444.69;4947139;28;20749;-76
2023/07/06 06:20:32;;;;;;;1.55;1.45;;;;;;;29.88;55.97;100450.31;4951030;29;20179;-75
2023/07/06 06:22:59;;;;;;;2.08;1.60;;;;;;;30.09;55.86;100443.13;4951370;28;20708;-76
2023/07/06 06:25:24;;;;;;;2.05;1.70;;;;;;;30.38;55.80;100446.81;4934733;29;20195;-77
2023/07/06 06:27:50;;;;;;;4.25;2.00;;;;;;;30.45;55.83;100445.25;4944892;28;20241;-77
2023/07/06 06:30:15;;;;;;;3.50;2.22;;;;;;;30.44;55.55;100446.25;4956450;28;20197;-76
2023/07/06 06:32:42;;;;;;;2.45;2.00;;;;;;;30.52;55.20;100443.72;4963380;28;20279;-75
2023/07/06 06:35:25;;;;;;;4.03;1.83;;;;;;;30.71;54.90;100445.59;4948915;29;20191;-77
2023/07/06 06:37:51;;;;;;;2.35;1.50;;;;;;;30.84;53.83;100449.78;4965784;28;20206;-76
2023/07/06 06:40:19;;;;;;;1.95;1.58;;;;;;;30.63;54.57;100447.28;4949860;29;20260;-76
2023/07/06 06:42:44;;;;;;;2.30;1.75;;;;;;;30.54;54.34;100448.91;4965487;28;20179;-76
2023/07/06 06:45:10;;;;;;;1.70;1.58;;;;;;;30.71;54.08;100455.41;4944121;28;20816;-76
2023/07/06 06:47:35;;;;;;;3.45;2.17;;;;;;;30.89;53.42;100452.88;4950102;28;20212;-75
2023/07/06 06:50:01;;;;;;;6.20;1.80;;;;;;;30.91;52.94;100452.72;4953072;29;20198;-76
2023/07/06 06:52:27;;;;;;;1.75;1.30;;;;;;;30.79;53.11;100452.88;4985385;28;20214;-75
2023/07/06 06:54:52;;;;;;;3.50;1.70;;;;;;;31.00;52.31;100447.38;4954775;28;20246;-75
2023/07/06 06:57:21;;;;;;;1.73;1.63;;;;;;;31.09;51.74;100464.38;4962719;28;20208;-75
2023/07/06 06:59:47;;;;;;;1.92;1.40;;;;;;;30.94;52.05;100458.63;4957490;28;20194;-75
2023/07/06 07:02:14;;;;;;;2.88;1.63;;;;;;;30.51;52.30;100455.41;4982164;28;20225;-75
2023/07/06 07:04:39;;;;;;;2.65;1.70;;;;;;;30.81;51.84;100456.25;4951831;28;20196;-76
2023/07/06 07:07:06;;;;;;;3.00;1.52;;;;;;;30.84;52.06;100452.47;4953669;28;20211;-76
2023/07/06 07:09:32;;;;;;;2.60;1.50;;;;;;;30.97;51.92;100453.00;4955395;29;20190;-76
2023/07/06 07:11:57;;;;;;;1.73;1.63;;;;;;;30.94;51.99;100447.94;4954495;28;20253;-77
2023/07/06 07:14:23;;;;;;;2.00;1.75;;;;;;;30.97;52.35;100454.84;4962105;28;20218;-77
2023/07/06 07:16:48;;;;;;;1.80;1.70;;;;;;;31.28;51.65;100452.00;4969549;28;20216;-75
2023/07/06 07:19:14;;;;;;;2.97;1.55;;;;;;;31.27;51.62;100456.47;4972104;28;20170;-77
2023/07/06 07:21:39;;;;;;;4.20;2.00;;;;;;;30.16;50.90;100456.75;4976920;28;20214;-78
2023/07/06 07:24:05;;;;;;;2.03;1.75;;;;;;;30.36;51.13;100452.28;4950289;28;20194;-77
2023/07/06 07:26:30;;;;;;;3.95;2.05;;;;;;;28.87;52.37;100446.41;4951996;28;21037;-77
2023/07/06 07:28:56;;;;;;;3.97;1.58;;;;;;;28.93;52.42;100450.38;4985036;28;20187;-77
2023/07/06 07:31:22;;;;;;;2.80;1.85;;;;;;;28.97;53.64;100451.81;4954871;29;20197;-76
2023/07/06 07:33:48;;;;;;;5.60;2.15;;;;;;;29.37;52.08;100444.06;4992618;28;20214;-75
2023/07/06 07:36:18;;;;;;;3.25;2.10;;;;;;;29.01;53.50;100447.06;4961875;28;20226;-76
2023/07/06 07:38:44;;;;;;;2.70;1.67;;;;;;;28.53;54.30;100451.84;4977240;28;20206;-76
2023/07/06 07:41:10;;;;;;;3.15;1.92;;;;;;;27.87;53.60;100452.72;4950757;28;20229;-76
2023/07/06 07:43:42;;;;;;;3.70;2.05;;;;;;;28.30;54.67;100451.06;4952319;28;20213;-76
2023/07/06 07:46:10;;;;;;;2.45;1.88;;;;;;;28.97;54.40;100449.16;4954096;28;20217;-76
2023/07/06 07:48:40;;;;;;;3.03;2.22;;;;;;;28.42;53.90;100451.91;4953747;28;20282;-77
2023/07/06 07:51:07;;;;;;;8.35;2.20;;;;;;;27.83;54.07;100448.59;4968091;28;20276;-76
2023/07/06 07:53:38;;;;;;;2.10;1.80;;;;;;;27.69;54.74;100449.69;4947725;28;20195;-76
2023/07/06 07:56:07;;;;;;;6.53;2.53;;;;;;;26.59;55.61;100452.63;4947645;28;20210;-75
2023/07/06 07:58:34;;;;;;;4.28;2.00;;;;;;;26.66;55.68;100453.03;4951169;28;20572;-77
2023/07/06 08:01:01;;;;;;;4.30;2.00;;;;;;;26.33;56.27;100450.09;4948583;28;20938;-77
2023/07/06 08:03:28;;;;;;;3.92;2.15;;;;;;;26.80;55.54;100452.88;4950102;28;20195;-76
2023/07/06 08:05:59;;;;;;;5.05;2.10;;;;;;;26.55;55.90;100459.13;4943729;28;20182;-75
2023/07/06 08:08:25;;;;;;;3.38;2.15;;;;;;;26.59;56.13;100453.50;4942672;28;20213;-76
2023/07/06 08:10:55;;;;;;;3.55;2.03;;;;;;;26.66;55.94;100448.59;4962242;28;21027;-76
2023/07/06 08:13:21;;;;;;;4.05;2.38;;;;;;;26.38;55.80;100460.38;4950352;28;20941;-75
2023/07/06 08:15:48;;;;;;;2.00;1.50;;;;;;;26.98;56.24;100455.09;4943060;28;20198;-76
2023/07/06 08:18:14;;;;;;;5.55;2.22;;;;;;;26.67;55.94;100458.25;4948114;28;20667;-77
2023/07/06 08:20:40;;;;;;;3.35;2.13;;;;;;;26.93;56.34;100458.13;4950173;28;20258;-76
2023/07/06 08:23:10;;;;;;;2.38;1.75;;;;;;;25.69;56.89;100456.38;4944591;28;20219;-75
2023/07/06 08:25:40;;;;;;;3.22;1.77;;;;;;;25.23;58.15;100463.03;4982271;28;20187;-75
2023/07/06 08:28:10;;;;;;;6.18;2.05;;;;;;;25.96;57.70;100458.03;4944606;28;20211;-75
2023/07/06 08:30:37;;;;;;;3.95;1.80;;;;;;;26.21;57.87;100456.31;4949661;28;20688;-75
2023/07/06 08:33:04;;;;;;;3.35;2.05;;;;;;;26.31;57.82;100454.66;4949540;28;20199;-77
2023/07/06 08:35:30;;;;;;;2.55;1.70;;;;;;;26.54;57.74;100460.94;4964561;28;20750;-75
2023/07/06 08:37:57;;;;;;;5.13;2.08;;;;;;;26.28;56.66;100462.84;4944689;28;20215;-77
2023/07/06 08:40:26;;;;;;;3.75;2.03;;;;;;;25.69;58.23;100453.72;4950464;28;20290;-75
2023/07/06 08:42:55;;;;;;;3.50;1.80;;;;;;;25.97;57.32;100455.28;4945653;28;20269;-75
2023/07/06 08:45:23;;;;;;;2.17;1.55;;;;;;;26.43;56.07;100453.78;4948941;28;20189;-77
2023/07/06 08:47:51;;;;;;;2.67;1.60;;;;;;;26.78;55.92;100452.09;4949574;28;20206;-75
2023/07/06 08:50:22;;;;;;;3.50;1.70;;;;;;;27.31;55.63;100453.50;4951857;28;20201;-74
2023/07/06 08:52:48;;;;;;;4.05;1.80;;;;;;;27.45;56.01;100449.78;4958467;28;20199;-76
2023/07/06 08:55:16;;;;;;;4.72;1.65;;;;;;;26.87;55.84;100450.59;4950517;28;20190;-75
2023/07/06 08:57:45;;;;;;;2.67;2.05;;;;;;;26.72;56.10;100441.97;4949663;28;20210;-75
2023/07/06 09:00:25;;;;;;;4.45;1.98;;;;;;;25.09;57.44;100448.06;4947413;28;20203;-76
2023/07/06 09:02:54;;;;;;;2.00;1.80;;;;;;;24.60;57.72;100449.50;4947582;28;20756;-75
2023/07/06 09:05:20;;;;;;;2.00;1.67;;;;;;;24.96;57.77;100443.59;4947607;28;20186;-77
2023/07/06 09:07:47;;;;;;;9.33;2.37;;;;;;;24.98;57.45;100448.78;4946342;28;20218;-77
2023/07/06 09:10:14;;;;;;;3.33;1.77;;;;;;;25.04;57.93;100442.22;4947844;28;20269;-75
2023/07/06 09:12:39;;;;;;;2.73;2.20;;;;;;;25.25;58.76;100439.94;4948437;28;20696;-74
2023/07/06 09:15:09;;;;;;;2.90;2.50;;;;;;;24.86;57.71;100439.88;4955510;28;20279;-74
2023/07/06 09:17:46;;;;;;;4.13;1.80;;;;;;;24.80;58.32;100440.28;4963666;28;20207;-74
2023/07/06 09:20:14;;;;;;;5.93;2.30;;;;;;;24.63;58.48;100442.22;4946789;28;20181;-77
2023/07/06 09:22:40;;;;;;;2.93;1.80;;;;;;;24.81;59.11;100440.16;4965204;28;20197;-77
2023/07/06 09:25:25;;;;;;;3.53;2.07;;;;;;;25.07;58.89;100437.59;4941511;28;20187;-76
2023/07/06 09:27:51;;;;;;;2.03;1.80;;;;;;;25.17;58.72;100443.13;4946078;28;20222;-77
2023/07/06 09:30:29;;;;;;;2.10;1.90;;;;;;;25.16;57.12;100440.56;4943975;28;20195;-76
2023/07/06 09:33:31;;;;;;;2.80;1.60;;;;;;;25.22;57.59;100434.84;4937204;28;20203;-74
2023/07/06 09:35:57;;;;;;;3.10;2.07;;;;;;;25.19;58.33;100438.53;4949631;28;20205;-76
2023/07/06 09:38:27;;;;;;;2.40;2.00;;;;;;;25.37;58.03;100432.94;4947160;28;20237;-75
2023/07/06 09:40:53;;;;;;;2.20;2.00;;;;;;;25.42;57.94;100431.69;4948942;29;20171;-75
2023/07/06 09:43:23;;;;;;;2.37;1.90;;;;;;;25.54;58.35;100440.59;4947985;28;20193;-75
2023/07/06 09:45:49;;;;;;;2.57;2.00;;;;;;;25.63;58.41;100438.28;4939758;28;20186;-76
2023/07/06 09:48:30;;;;;;;2.40;1.97;;;;;;;25.59;57.65;100439.44;4939010;28;20249;-75
2023/07/06 09:51:23;;;;;;;2.97;1.90;;;;;;;25.82;56.48;100436.00;4947116;28;20178;-76
2023/07/06 09:53:59;;;;;;;3.50;2.10;;;;;;;25.59;56.24;100432.31;4950310;28;20223;-74
2023/07/06 09:56:25;;;;;;;2.27;1.87;;;;;;;25.75;56.88;100436.53;4940251;28;20222;-76
2023/07/06 09:58:52;;;;;;;2.97;1.80;;;;;;;25.75;55.63;100434.75;4949396;28;20187;-76
2023/07/06 10:01:36;;;;;;;3.20;2.13;;;;;;;24.85;56.14;100438.19;4948596;28;22038;-76
2023/07/06 10:04:26;;;;;;;2.87;2.00;;;;;;;25.00;56.86;100427.50;4976612;28;20201;-76
2023/07/06 10:07:32;;;;;;;2.03;1.47;;;;;;;25.13;56.88;100435.44;4971943;28;20318;-77
2023/07/06 10:10:13;;;;;;;2.60;2.03;;;;;;;24.95;57.46;100439.25;4974261;28;20193;-75
2023/07/06 10:12:46;;;;;;;2.60;1.87;;;;;;;24.95;57.72;100438.41;4945440;28;20931;-74
2023/07/06 10:15:26;;;;;;;2.33;1.60;;;;;;;25.20;57.88;100432.28;4936206;28;20192;-76
2023/07/06 10:18:08;;;;;;;2.67;1.70;;;;;;;25.55;56.83;100439.63;4947791;28;20203;-75
2023/07/06 10:20:45;;;;;;;3.20;1.83;;;;;;;25.77;56.66;100438.16;4935089;28;20184;-75
2023/07/06 10:23:32;;;;;;;3.37;2.33;;;;;;;25.70;53.70;100432.44;4947971;28;20175;-75
2023/07/06 10:26:18;;;;;;;2.93;2.17;;;;;;;25.73;53.48;100434.00;4941319;28;20175;-76
2023/07/06 10:28:53;;;;;;;1.90;1.70;;;;;;;25.89;53.74;100435.56;4950711;28;20250;-75
2023/07/06 10:31:25;;;;;;;2.63;2.07;;;;;;;26.18;54.28;100436.13;4951353;28;20194;-74
2023/07/06 10:34:13;;;;;;;2.10;1.90;;;;;;;26.36;54.08;100431.31;4949260;28;20758;-76
2023/07/06 10:36:40;;;;;;;2.10;1.90;;;;;;;26.43;52.53;100423.75;4942048;28;20261;-75
2023/07/06 10:39:23;;;;;;;4.13;1.90;;;;;;;26.19;50.79;100429.88;4939845;28;20198;-75
2023/07/06 10:42:00;;;;;;;2.07;1.90;;;;;;;25.80;51.67;100432.59;4948697;28;20221;-76
2023/07/06 10:44:43;;;;;;;1.77;1.63;;;;;;;26.00;52.02;100431.19;4951993;28;20193;-76
2023/07/06 10:47:28;;;;;;;2.27;1.87;;;;;;;26.10;52.01;100426.06;4950715;28;20344;-77
2023/07/06 10:50:11;;;;;;;2.83;1.80;;;;;;;26.20;51.26;100434.22;4943787;28;20194;-75
2023/07/06 10:52:40;;;;;;;2.17;1.97;;;;;;;26.33;50.89;100435.03;4950074;28;20214;-76
2023/07/06 10:55:22;;;;;;;2.93;2.00;;;;;;;26.43;50.97;100437.84;4951757;28;20202;-76
2023/07/06 10:57:58;;;;;;;2.93;2.00;;;;;;;26.55;50.23;100432.59;4967444;28;20254;-75
2023/07/06 11:00:37;;;;;;;2.83;2.33;;;;;;;26.60;48.30;100433.97;4949004;28;20202;-76
2023/07/06 11:03:05;;;;;;;2.70;2.10;;;;;;;26.68;50.33;100429.88;4950355;28;20274;-75
2023/07/06 11:05:36;;;;;;;7.00;2.30;;;;;;;26.72;50.74;100429.53;4947689;28;20218;-75
2023/07/06 11:08:10;;;;;;;3.27;2.13;;;;;;;26.71;50.64;100429.66;4953977;28;20283;-76
2023/07/06 11:10:37;;;;;;;3.80;1.97;;;;;;;26.62;50.89;100433.84;4953213;28;20218;-76
2023/07/06 11:13:04;;;;;;;2.33;1.90;;;;;;;26.73;51.56;100425.06;4944458;28;20237;-76
2023/07/06 11:15:35;;;;;;;3.40;2.23;;;;;;;26.81;51.59;100425.38;4949835;28;20231;-76
2023/07/06 11:18:22;;;;;;;2.97;2.33;;;;;;;26.57;50.50;100426.22;4976094;28;20213;-77
2023/07/06 11:20:54;;;;;;;2.57;1.83;;;;;;;25.91;50.62;100431.84;4963091;28;20250;-76
2023/07/06 11:23:47;;;;;;;2.57;2.00;;;;;;;25.83;51.98;100421.78;4950823;28;20186;-76
2023/07/06 11:26:42;;;;;;;3.10;2.07;;;;;;;25.96;51.90;100423.56;4952058;28;20219;-77
2023/07/06 11:29:08;;;;;;;2.40;2.00;;;;;;;26.07;51.75;100421.00;4950370;28;20681;-76
2023/07/06 11:31:54;;;;;;;2.50;2.07;;;;;;;26.31;52.03;100423.69;4957323;28;20289;-76
2023/07/06 11:34:49;;;;;;;3.63;2.07;;;;;;;26.20;49.11;100428.91;4949932;28;20194;-75
2023/07/06 11:37:15;;;;;;;3.10;2.00;;;;;;;25.69;49.61;100421.91;4946638;28;20305;-76